Time;durP1;ratioP1;P1;durP2;ratioP2;P2;SDS_P1;SDS_P2;PMS_P1;PMS_P2;Temp;Humidity;BMP_temperature;BMP_pressure;BME280_temperature;BME280_humidity;BME280_pressure;Samples;Min_cycle;Max_cycle;Signal;HPM_P1;HPM_P2
2022/05/15 00:01:29;;;;;;;11.38;5.15;;;;;;;15.56;57.42;99351.06;5013165;28;20028;-84
2022/05/15 00:03:54;;;;;;;13.90;4.75;;;;;;;15.46;57.28;99346.50;5009891;28;20029;-85
2022/05/15 00:06:20;;;;;;;17.25;5.43;;;;;;;15.46;57.45;99343.81;5026198;28;20041;-84
2022/05/15 00:08:45;;;;;;;16.77;5.05;;;;;;;15.36;57.43;99343.75;5022309;28;20033;-85
2022/05/15 00:11:13;;;;;;;19.50;5.47;;;;;;;15.33;57.63;99348.88;5029695;28;20045;-85
2022/05/15 00:13:39;;;;;;;18.05;4.88;;;;;;;15.30;57.98;99350.19;5020948;28;20029;-85
2022/05/15 00:16:06;;;;;;;15.07;5.25;;;;;;;15.31;57.66;99349.09;5031741;28;20030;-84
2022/05/15 00:18:31;;;;;;;14.70;4.85;;;;;;;15.29;57.36;99350.47;5025615;28;20471;-85
2022/05/15 00:20:57;;;;;;;16.13;5.18;;;;;;;15.31;57.38;99354.50;5030916;28;20046;-85
2022/05/15 00:23:24;;;;;;;11.05;5.25;;;;;;;15.32;57.37;99350.75;4994705;28;20312;-85
2022/05/15 00:25:50;;;;;;;16.17;6.07;;;;;;;15.28;57.34;99352.34;5023332;28;20025;-85
2022/05/15 00:28:15;;;;;;;11.82;5.45;;;;;;;15.31;57.42;99353.69;5009962;28;20087;-85
2022/05/15 00:30:42;;;;;;;15.82;5.93;;;;;;;15.28;57.75;99349.66;5028705;28;20025;-85
2022/05/15 00:33:07;;;;;;;14.88;5.88;;;;;;;15.20;57.81;99357.44;5026074;28;20095;-85
2022/05/15 00:35:35;;;;;;;16.58;5.32;;;;;;;15.24;57.93;99350.47;5030716;28;20029;-85
2022/05/15 00:38:05;;;;;;;12.13;5.13;;;;;;;15.23;57.84;99357.72;5010645;28;20448;-85
2022/05/15 00:40:32;;;;;;;13.32;5.38;;;;;;;15.25;57.92;99349.38;5030811;28;20120;-85
2022/05/15 00:42:57;;;;;;;10.52;4.82;;;;;;;15.17;57.91;99349.91;5020861;28;20416;-85
2022/05/15 00:45:23;;;;;;;12.35;5.18;;;;;;;15.16;58.07;99353.69;5022594;28;20026;-85
2022/05/15 00:47:49;;;;;;;16.35;5.35;;;;;;;15.02;58.23;99335.38;5029781;28;20033;-84
2022/05/15 00:50:22;;;;;;;11.57;5.15;;;;;;;15.10;58.29;99352.03;5029324;28;20083;-85
2022/05/15 00:52:51;;;;;;;16.30;5.97;;;;;;;15.07;58.56;99353.34;5026893;28;20032;-85
2022/05/15 00:55:21;;;;;;;19.70;5.32;;;;;;;15.04;58.47;99348.53;5029475;28;20024;-85
2022/05/15 00:57:59;;;;;;;13.93;5.82;;;;;;;14.91;58.58;99331.03;5026899;28;20117;-85
2022/05/15 01:00:27;;;;;;;18.80;6.45;;;;;;;14.91;58.97;99352.53;5024231;28;20025;-85
2022/05/15 01:03:00;;;;;;;21.92;6.45;;;;;;;14.91;59.11;99352.53;5022352;28;20495;-85
2022/05/15 01:05:26;;;;;;;17.67;6.05;;;;;;;14.91;58.86;99349.84;5038849;28;20064;-85
2022/05/15 01:07:52;;;;;;;11.70;5.68;;;;;;;14.90;58.61;99352.78;5030080;28;20104;-85
2022/05/15 01:10:18;;;;;;;18.90;5.72;;;;;;;14.86;59.04;99347.13;5026029;28;20577;-85
2022/05/15 01:12:43;;;;;;;14.80;5.85;;;;;;;14.88;59.02;99353.03;5025174;28;20037;-85
2022/05/15 01:15:11;;;;;;;14.38;6.15;;;;;;;14.86;59.05;99355.19;5009033;28;20029;-85
2022/05/15 01:17:36;;;;;;;12.75;5.82;;;;;;;14.90;58.92;99353.59;5024999;28;20079;-85
2022/05/15 01:20:14;;;;;;;15.57;5.47;;;;;;;14.80;58.99;99348.19;5027874;28;20360;-85
2022/05/15 01:22:40;;;;;;;24.70;7.40;;;;;;;14.76;59.04;99354.34;5024225;28;20041;-85
2022/05/15 01:25:12;;;;;;;19.67;5.70;;;;;;;14.75;59.05;99356.22;5026943;28;20025;-85
2022/05/15 01:27:38;;;;;;;17.35;6.32;;;;;;;14.83;59.09;99347.66;5020491;28;20033;-85
2022/05/15 01:30:05;;;;;;;17.30;6.10;;;;;;;14.68;59.23;99344.09;4992532;28;20103;-85
2022/05/15 01:32:31;;;;;;;18.48;6.05;;;;;;;14.63;59.25;99355.66;5027531;28;20037;-85
2022/05/15 01:34:57;;;;;;;13.55;5.68;;;;;;;14.64;59.26;99343.81;5008907;28;20044;-85
2022/05/15 01:37:22;;;;;;;18.83;5.07;;;;;;;14.50;59.21;99323.88;5031246;28;20029;-85
2022/05/15 01:39:47;;;;;;;16.88;5.57;;;;;;;14.60;59.24;99336.53;5011176;28;20124;-85
2022/05/15 01:42:13;;;;;;;17.42;6.10;;;;;;;14.54;59.19;99343.78;5024869;28;20029;-85
2022/05/15 01:44:38;;;;;;;15.10;6.43;;;;;;;14.45;59.38;99337.28;4996612;28;20378;-85
2022/05/15 01:47:03;;;;;;;15.18;5.75;;;;;;;14.41;59.48;99330.00;4993702;28;20026;-85
2022/05/15 01:49:29;;;;;;;17.38;5.63;;;;;;;14.28;59.53;99318.63;5009083;28;20029;-85
2022/05/15 01:51:54;;;;;;;17.10;5.75;;;;;;;14.36;59.27;99332.66;5009122;28;20044;-85
2022/05/15 01:54:20;;;;;;;17.40;6.03;;;;;;;14.38;59.22;99342.09;5006549;28;20599;-85
2022/05/15 01:56:45;;;;;;;22.48;6.40;;;;;;;14.30;59.22;99331.84;5030406;28;20088;-85
2022/05/15 01:59:10;;;;;;;12.15;5.35;;;;;;;14.24;59.35;99335.53;5021916;28;20041;-85
2022/05/15 02:01:36;;;;;;;11.77;5.97;;;;;;;14.22;59.47;99343.84;4992143;28;20033;-85
2022/05/15 02:04:02;;;;;;;13.18;5.25;;;;;;;14.20;59.58;99347.84;5025873;28;20023;-84
2022/05/15 02:06:28;;;;;;;14.48;5.40;;;;;;;14.09;59.94;99332.75;5009484;28;20576;-85
2022/05/15 02:08:54;;;;;;;16.10;5.35;;;;;;;14.12;59.58;99329.56;5023774;28;20033;-85
2022/05/15 02:11:19;;;;;;;15.82;5.10;;;;;;;14.13;59.44;99337.34;5023477;28;20025;-85
2022/05/15 02:13:45;;;;;;;20.05;5.63;;;;;;;14.11;59.36;99330.59;5009136;28;20486;-85
2022/05/15 02:16:10;;;;;;;17.70;7.13;;;;;;;14.05;59.75;99329.78;5007909;28;20029;-85
2022/05/15 02:18:35;;;;;;;14.85;6.10;;;;;;;14.03;59.64;99331.09;5007740;28;20038;-85
2022/05/15 02:21:01;;;;;;;12.23;4.80;;;;;;;14.07;59.60;99340.25;5008242;28;20079;-85
2022/05/15 02:23:29;;;;;;;13.20;5.82;;;;;;;14.08;59.45;99333.81;5022599;28;20033;-84
2022/05/15 02:25:54;;;;;;;12.65;5.10;;;;;;;13.99;59.50;99317.41;5010105;28;20512;-84
2022/05/15 02:28:20;;;;;;;17.33;6.40;;;;;;;13.87;59.80;99315.97;5004383;28;20124;-85
2022/05/15 02:30:48;;;;;;;14.27;5.72;;;;;;;13.88;59.99;99329.13;5030808;28;20564;-84
2022/05/15 02:33:13;;;;;;;14.15;5.53;;;;;;;13.86;59.86;99320.53;5023029;28;20033;-84
2022/05/15 02:35:39;;;;;;;16.35;6.38;;;;;;;13.93;59.58;99329.19;5020654;28;20029;-84
2022/05/15 02:38:05;;;;;;;11.90;4.75;;;;;;;13.93;59.46;99310.38;5008404;28;20620;-84
2022/05/15 02:40:33;;;;;;;14.60;5.53;;;;;;;13.91;60.25;99328.59;5011655;28;20477;-84
2022/05/15 02:42:59;;;;;;;12.02;5.38;;;;;;;13.80;59.86;99318.06;5030271;28;20487;-84
2022/05/15 02:45:25;;;;;;;15.32;5.43;;;;;;;13.83;59.65;99322.91;4995796;28;20029;-84
2022/05/15 02:47:51;;;;;;;16.58;5.00;;;;;;;13.86;59.62;99312.47;5023045;28;20028;-84
2022/05/15 02:53:01;;;;;;;17.15;5.60;;;;;;;13.75;59.79;99337.63;5024853;28;20104;-84
2022/05/15 02:55:27;;;;;;;16.83;5.82;;;;;;;13.65;60.00;99324.09;5027400;28;20034;-85
2022/05/15 02:57:52;;;;;;;16.80;6.22;;;;;;;13.78;59.85;99325.56;5006046;28;20041;-84
2022/05/15 03:00:21;;;;;;;13.90;5.53;;;;;;;13.83;59.68;99333.63;5006016;28;20038;-84
2022/05/15 03:02:47;;;;;;;15.25;5.35;;;;;;;13.77;59.74;99332.00;5024556;28;20029;-84
2022/05/15 03:05:14;;;;;;;16.23;5.57;;;;;;;13.71;59.82;99338.38;5024509;28;20033;-84
2022/05/15 03:07:39;;;;;;;15.98;5.07;;;;;;;13.75;59.52;99329.56;5029198;28;20073;-84
2022/05/15 03:10:06;;;;;;;11.77;4.90;;;;;;;13.68;59.08;99331.66;5024202;28;20089;-84
2022/05/15 03:12:31;;;;;;;13.50;5.47;;;;;;;13.64;59.58;99343.97;5007538;28;20108;-84
2022/05/15 03:14:57;;;;;;;14.35;6.50;;;;;;;13.55;59.71;99340.13;5022677;28;20124;-84
2022/05/15 03:17:22;;;;;;;13.65;5.88;;;;;;;13.58;59.49;99345.00;5024568;28;20044;-84
2022/05/15 03:19:48;;;;;;;11.15;4.88;;;;;;;13.43;59.90;99337.59;5025302;28;20068;-84
2022/05/15 03:22:13;;;;;;;17.23;5.20;;;;;;;13.41;59.60;99341.63;5024486;28;20029;-84
2022/05/15 03:24:39;;;;;;;12.77;5.95;;;;;;;13.46;59.84;99342.47;5023673;28;20036;-84
2022/05/15 03:27:04;;;;;;;12.88;5.15;;;;;;;13.53;58.73;99331.53;5022082;28;20112;-84
2022/05/15 03:29:30;;;;;;;15.70;5.25;;;;;;;13.48;59.41;99337.66;5022457;28;20029;-84
2022/05/15 03:31:56;;;;;;;13.65;4.60;;;;;;;13.51;59.05;99344.38;5009061;28;20055;-84
2022/05/15 03:34:22;;;;;;;12.30;5.25;;;;;;;13.43;59.38;99348.34;5023865;28;20029;-84
2022/05/15 03:36:51;;;;;;;16.10;4.97;;;;;;;13.33;59.74;99348.25;5023589;28;20545;-84
2022/05/15 03:39:16;;;;;;;11.25;5.50;;;;;;;13.27;59.99;99337.72;5022269;28;20063;-84
2022/05/15 03:41:44;;;;;;;15.90;5.72;;;;;;;13.33;59.93;99348.25;5013838;28;20033;-84
2022/05/15 03:44:09;;;;;;;16.02;5.53;;;;;;;13.33;59.52;99340.22;5007414;28;20504;-84
2022/05/15 03:46:35;;;;;;;14.02;6.38;;;;;;;13.32;59.98;99351.19;5005173;28;20025;-85
2022/05/15 03:49:01;;;;;;;13.85;5.00;;;;;;;13.29;59.74;99349.81;5026630;28;20033;-84
2022/05/15 03:51:26;;;;;;;15.57;5.00;;;;;;;13.27;60.11;99351.13;5026010;28;20034;-85
2022/05/15 03:53:52;;;;;;;6.57;4.93;;;;;;;13.32;59.79;99360.03;4998322;28;20051;-85
2022/05/15 03:56:49;;;;;;;10.95;4.47;;;;;;;13.14;60.38;99356.91;5015488;28;20029;-84
2022/05/15 03:59:08;;;;;;;13.40;5.22;;;;;;;13.21;60.31;99361.00;5027617;28;20044;-84
2022/05/15 04:01:34;;;;;;;12.25;5.70;;;;;;;13.13;60.25;99347.22;5010215;28;20037;-84
2022/05/15 04:03:59;;;;;;;9.95;4.72;;;;;;;13.15;60.28;99363.91;5006846;28;20498;-85
2022/05/15 04:06:25;;;;;;;20.35;5.65;;;;;;;13.29;59.81;99367.78;5026540;28;20164;-85
2022/05/15 04:08:51;;;;;;;11.45;4.95;;;;;;;13.21;59.83;99354.84;5025215;28;20052;-85
2022/05/15 04:11:17;;;;;;;14.65;5.28;;;;;;;13.17;59.91;99370.59;5011042;28;20029;-85
2022/05/15 04:13:43;;;;;;;14.02;5.85;;;;;;;13.15;60.38;99372.72;4994202;28;20029;-84
2022/05/15 04:16:09;;;;;;;11.00;5.22;;;;;;;13.09;60.64;99362.19;5029802;28;20025;-84
2022/05/15 04:18:35;;;;;;;10.82;4.60;;;;;;;13.11;60.33;99374.28;5011125;28;20033;-85
2022/05/15 04:21:00;;;;;;;15.23;5.35;;;;;;;13.38;60.18;99383.16;5022192;28;20495;-85
2022/05/15 04:23:26;;;;;;;12.00;5.95;;;;;;;13.57;59.25;99382.78;5009016;28;20037;-84
2022/05/15 04:25:51;;;;;;;21.17;6.15;;;;;;;13.56;59.98;99394.59;5019143;28;20029;-84
2022/05/15 04:28:17;;;;;;;13.82;5.60;;;;;;;13.40;60.15;99386.41;5025553;28;20037;-84
2022/05/15 04:30:42;;;;;;;10.07;4.95;;;;;;;13.23;60.78;99383.00;5042704;28;20052;-84
2022/05/15 04:33:08;;;;;;;13.13;5.80;;;;;;;13.28;60.64;99390.31;4993639;28;20086;-85
2022/05/15 04:35:34;;;;;;;12.70;5.35;;;;;;;13.31;61.21;99387.09;5013280;28;20482;-85
2022/05/15 04:37:59;;;;;;;15.77;5.82;;;;;;;13.31;61.38;99395.94;4997401;28;20059;-85
2022/05/15 04:40:25;;;;;;;12.85;5.47;;;;;;;13.39;60.91;99384.75;5024121;28;20481;-84
2022/05/15 04:42:50;;;;;;;13.32;6.70;;;;;;;13.44;61.47;99400.09;4998380;28;20512;-84
2022/05/15 04:45:15;;;;;;;13.63;6.00;;;;;;;13.50;61.12;99397.22;5026508;28;20033;-84
2022/05/15 04:47:44;;;;;;;14.35;6.30;;;;;;;13.56;60.88;99399.94;5007859;28;20490;-84
2022/05/15 04:50:09;;;;;;;11.50;5.43;;;;;;;13.68;61.10;99404.09;5026508;28;20033;-84
2022/05/15 04:52:35;;;;;;;13.85;6.72;;;;;;;13.99;60.35;99389.88;5027308;28;20385;-84
2022/05/15 04:55:00;;;;;;;13.65;6.50;;;;;;;14.28;59.76;99395.72;5027856;28;20036;-84
2022/05/15 04:57:25;;;;;;;14.93;7.25;;;;;;;14.37;59.59;99399.56;5014911;28;20543;-84
2022/05/15 04:59:51;;;;;;;16.23;6.78;;;;;;;14.41;59.59;99406.03;5008294;28;20110;-84
2022/05/15 05:02:16;;;;;;;15.43;7.28;;;;;;;14.48;59.45;99405.81;4993005;28;20080;-84
2022/05/15 05:04:41;;;;;;;18.00;7.35;;;;;;;14.49;59.37;99394.78;5024020;28;20522;-84
2022/05/15 05:07:08;;;;;;;15.63;7.43;;;;;;;14.51;59.71;99406.06;5024151;28;20538;-84
2022/05/15 05:09:33;;;;;;;14.68;6.93;;;;;;;14.56;59.82;99408.81;5020444;28;20623;-84
2022/05/15 05:11:59;;;;;;;14.52;7.65;;;;;;;14.59;59.65;99399.41;5024884;28;20048;-84
2022/05/15 05:14:24;;;;;;;13.32;6.82;;;;;;;14.61;59.90;99402.66;5027089;28;20052;-84
2022/05/15 05:16:49;;;;;;;12.50;6.57;;;;;;;14.62;60.17;99402.38;5026334;28;20021;-84
2022/05/15 05:19:15;;;;;;;13.48;6.88;;;;;;;14.68;59.98;99395.94;4990926;28;20049;-84
2022/05/15 05:21:40;;;;;;;20.27;9.18;;;;;;;14.71;60.22;99403.50;5028377;28;21468;-84
2022/05/15 05:24:05;;;;;;;13.75;6.97;;;;;;;14.65;60.08;99395.69;4992963;28;20029;-84
2022/05/15 05:26:31;;;;;;;12.90;6.38;;;;;;;14.69;60.23;99411.03;4994494;28;20026;-84
2022/05/15 05:28:56;;;;;;;13.82;6.80;;;;;;;14.67;60.82;99410.47;4989923;28;20689;-84
2022/05/15 05:31:21;;;;;;;16.95;8.98;;;;;;;14.62;60.51;99407.75;5019940;28;20049;-85
2022/05/15 05:33:47;;;;;;;20.25;8.45;;;;;;;14.66;60.57;99408.03;5006301;28;20037;-85
2022/05/15 05:36:13;;;;;;;24.50;7.68;;;;;;;14.69;60.65;99407.50;5023433;28;20029;-85
2022/05/15 05:38:38;;;;;;;16.10;7.65;;;;;;;14.72;60.50;99415.84;5023071;28;20071;-84
2022/05/15 05:41:04;;;;;;;17.33;9.20;;;;;;;14.72;60.85;99413.16;5025600;28;20496;-84
2022/05/15 05:43:30;;;;;;;18.45;8.35;;;;;;;14.77;60.76;99405.13;5026240;28;20081;-84
2022/05/15 05:45:55;;;;;;;17.73;8.25;;;;;;;14.77;60.60;99402.44;5021357;28;20030;-84
2022/05/15 05:48:20;;;;;;;14.48;8.15;;;;;;;14.81;60.54;99416.16;5008872;28;20119;-84
2022/05/15 05:50:46;;;;;;;15.68;7.88;;;;;;;14.90;60.07;99415.41;4993972;28;20418;-84
2022/05/15 05:53:11;;;;;;;18.88;8.15;;;;;;;14.90;60.28;99406.53;5023568;28;20095;-84
2022/05/15 05:55:37;;;;;;;20.77;8.35;;;;;;;15.00;60.71;99411.97;5025855;28;20573;-84
2022/05/15 05:58:03;;;;;;;18.15;8.65;;;;;;;15.03;60.41;99417.63;5045566;28;20025;-84
2022/05/15 06:00:31;;;;;;;15.90;7.57;;;;;;;15.05;60.44;99414.66;5019890;28;20473;-84
2022/05/15 06:05:43;;;;;;;16.52;7.68;;;;;;;15.19;60.10;99420.34;5025442;28;20044;-84
2022/05/15 06:08:09;;;;;;;13.88;7.97;;;;;;;15.22;59.99;99415.28;5024075;28;20025;-84
2022/05/15 06:10:35;;;;;;;14.07;7.85;;;;;;;15.25;59.71;99408.53;5025401;28;20042;-84
2022/05/15 06:13:00;;;;;;;18.85;7.97;;;;;;;15.25;60.00;99408.53;5023816;28;20576;-84
2022/05/15 06:15:25;;;;;;;15.93;7.63;;;;;;;15.32;59.86;99407.22;5008218;28;20524;-84
2022/05/15 06:17:51;;;;;;;18.52;9.55;;;;;;;15.39;59.96;99412.34;5007967;28;20051;-84
2022/05/15 06:20:16;;;;;;;18.73;8.52;;;;;;;15.38;59.87;99416.09;5005648;28;20049;-84
2022/05/15 06:22:42;;;;;;;13.23;7.30;;;;;;;15.40;59.18;99401.31;5021880;28;20055;-84
2022/05/15 06:25:08;;;;;;;16.40;7.97;;;;;;;15.43;59.77;99408.91;4998470;28;20038;-84
2022/05/15 06:27:33;;;;;;;17.85;7.50;;;;;;;15.45;59.50;99397.88;5040295;28;20075;-84
2022/05/15 06:29:59;;;;;;;14.60;7.53;;;;;;;15.42;59.90;99401.84;4995938;28;20115;-84
2022/05/15 06:32:26;;;;;;;14.35;7.10;;;;;;;15.40;59.97;99387.88;5004379;28;20040;-84
2022/05/15 06:34:53;;;;;;;16.48;8.07;;;;;;;15.50;59.90;99403.25;5005915;28;20034;-84
2022/05/15 06:37:18;;;;;;;18.17;7.20;;;;;;;15.58;59.59;99406.22;5023813;28;20021;-84
2022/05/15 06:39:43;;;;;;;14.35;7.35;;;;;;;15.59;59.96;99401.66;5008100;28;20042;-84
2022/05/15 06:42:09;;;;;;;14.50;7.47;;;;;;;15.57;59.58;99396.53;5039359;28;20037;-84
2022/05/15 06:44:34;;;;;;;19.15;7.13;;;;;;;15.66;59.47;99400.31;5024728;28;20052;-84
2022/05/15 06:47:00;;;;;;;17.05;7.80;;;;;;;15.69;59.72;99398.97;5021944;28;20401;-84
2022/05/15 06:49:25;;;;;;;18.35;7.25;;;;;;;15.77;59.41;99398.44;5005884;28;20124;-84
2022/05/15 06:51:51;;;;;;;15.63;6.82;;;;;;;15.77;59.53;99401.94;5024099;28;20543;-84
2022/05/15 06:54:16;;;;;;;12.27;7.45;;;;;;;15.74;59.26;99393.59;5024618;28;20119;-84
2022/05/15 06:59:25;;;;;;;13.25;6.05;;;;;;;15.86;59.59;99393.34;5017955;28;20056;-84
2022/05/15 07:01:51;;;;;;;18.27;7.18;;;;;;;15.93;59.58;99389.28;5003283;28;20037;-84
2022/05/15 07:04:16;;;;;;;12.05;6.45;;;;;;;15.94;59.47;99385.53;5026561;28;20033;-84
2022/05/15 07:06:41;;;;;;;16.38;7.13;;;;;;;16.07;59.17;99398.44;5018658;28;20052;-84
2022/05/15 07:09:07;;;;;;;11.77;6.38;;;;;;;16.12;59.14;99400.34;5006869;28;20029;-84
2022/05/15 07:11:32;;;;;;;15.45;6.40;;;;;;;16.19;59.11;99393.56;5003125;28;20044;-84
2022/05/15 07:13:57;;;;;;;13.18;5.88;;;;;;;16.25;58.96;99397.88;5008269;28;20495;-84
2022/05/15 07:16:22;;;;;;;16.50;5.18;;;;;;;16.36;58.97;99398.66;5006799;28;20057;-84
2022/05/15 07:18:48;;;;;;;13.20;6.13;;;;;;;16.44;58.99;99395.44;5009544;28;20061;-84
2022/05/15 07:21:13;;;;;;;16.73;5.60;;;;;;;16.42;58.82;99395.69;5025021;28;20033;-84
2022/05/15 07:23:39;;;;;;;11.68;5.00;;;;;;;16.47;59.25;99389.47;5021177;28;20060;-84
2022/05/15 07:26:04;;;;;;;12.50;4.90;;;;;;;16.54;58.89;99400.00;5007945;28;20022;-84
2022/05/15 07:28:29;;;;;;;14.23;5.95;;;;;;;16.70;58.46;99393.50;5008961;28;20053;-84
2022/05/15 07:30:55;;;;;;;14.30;5.88;;;;;;;16.68;58.99;99391.09;5027795;28;20392;-84
2022/05/15 07:33:22;;;;;;;13.38;5.53;;;;;;;16.73;59.00;99398.34;5025769;28;20033;-84
2022/05/15 07:35:48;;;;;;;12.95;5.88;;;;;;;16.73;58.88;99390.25;5026288;28;20508;-84
2022/05/15 07:38:15;;;;;;;11.90;5.65;;;;;;;16.82;58.78;99392.09;5021145;28;20037;-84
2022/05/15 07:40:41;;;;;;;11.55;4.70;;;;;;;16.94;59.11;99399.88;5028476;28;20034;-84
2022/05/15 07:43:07;;;;;;;7.90;4.57;;;;;;;16.94;58.77;99397.19;5021078;28;20040;-84
2022/05/15 07:45:33;;;;;;;14.30;5.53;;;;;;;17.04;58.35;99383.66;5031062;28;20399;-84
2022/05/15 07:47:59;;;;;;;9.07;5.13;;;;;;;17.07;58.76;99393.88;5011413;28;20725;-83
2022/05/15 07:50:24;;;;;;;13.65;5.68;;;;;;;17.10;58.48;99387.97;5024985;28;20456;-84
2022/05/15 07:52:50;;;;;;;13.45;4.72;;;;;;;17.18;58.68;99385.47;5011727;28;20033;-84
2022/05/15 07:55:15;;;;;;;13.30;4.72;;;;;;;17.23;58.19;99388.13;4995771;28;20025;-84
2022/05/15 07:57:41;;;;;;;11.65;5.13;;;;;;;17.28;58.23;99383.81;5031658;28;20393;-84
2022/05/15 08:00:09;;;;;;;15.70;4.93;;;;;;;17.34;58.72;99388.09;5010235;28;20262;-83
2022/05/15 08:02:35;;;;;;;12.50;5.22;;;;;;;17.33;58.34;99387.28;5025403;28;20424;-84
2022/05/15 08:08:00;;;;;;;12.30;4.55;;;;;;;17.48;58.05;99383.66;5032173;28;20051;-84
2022/05/15 08:10:27;;;;;;;12.70;4.40;;;;;;;17.52;58.00;99380.16;5020472;28;20478;-84
2022/05/15 08:12:52;;;;;;;10.15;3.78;;;;;;;17.59;58.13;99388.75;5025927;28;20029;-83
2022/05/15 08:15:17;;;;;;;11.18;4.93;;;;;;;17.63;57.97;99386.28;5016300;28;20079;-84
2022/05/15 08:17:43;;;;;;;13.93;4.97;;;;;;;17.70;57.48;99379.50;5010830;28;20172;-83
2022/05/15 08:25:39;;;;;;;14.55;5.03;;;;;;;17.94;57.96;99382.28;5020253;28;20029;-83
2022/05/15 08:28:05;;;;;;;12.23;4.78;;;;;;;17.90;57.65;99370.44;5025018;28;20025;-84
2022/05/15 08:30:31;;;;;;;11.95;5.40;;;;;;;18.02;57.76;99378.16;5027026;28;20041;-84
2022/05/15 08:32:57;;;;;;;10.70;5.05;;;;;;;18.03;58.14;99380.56;4998551;28;20036;-84
2022/05/15 08:35:27;;;;;;;12.30;5.32;;;;;;;18.04;58.08;99371.41;5026047;28;20030;-84
2022/05/15 08:37:53;;;;;;;11.30;4.57;;;;;;;18.12;58.02;99372.66;5028328;28;20061;-84
2022/05/15 08:40:24;;;;;;;12.90;4.78;;;;;;;18.20;57.51;99370.16;5009212;28;20064;-84
2022/05/15 08:42:56;;;;;;;13.75;4.85;;;;;;;18.28;57.72;99366.81;5027386;28;20029;-84
2022/05/15 08:45:25;;;;;;;11.65;5.25;;;;;;;18.34;57.99;99368.41;5025785;28;20014;-84
2022/05/15 08:48:04;;;;;;;14.07;4.60;;;;;;;18.48;57.54;99363.13;5027386;28;20033;-84
2022/05/15 08:50:35;;;;;;;12.77;4.88;;;;;;;18.58;57.45;99365.72;5024464;28;20492;-84
2022/05/15 08:53:05;;;;;;;11.98;5.05;;;;;;;18.57;57.53;99366.81;5027206;28;20025;-84
2022/05/15 08:55:42;;;;;;;11.30;4.40;;;;;;;18.65;57.19;99368.91;5023847;28;20497;-83
2022/05/15 08:58:13;;;;;;;8.90;4.35;;;;;;;18.71;57.52;99359.63;5021330;28;20033;-83
2022/05/15 09:00:43;;;;;;;10.75;4.85;;;;;;;18.91;56.93;99356.69;5017303;28;20025;-83
2022/05/15 09:03:21;;;;;;;15.85;4.75;;;;;;;19.38;55.86;99353.88;5020982;28;20049;-83
2022/05/15 09:06:06;;;;;;;11.90;4.50;;;;;;;19.49;56.06;99346.41;5022722;28;20026;-83
2022/05/15 09:08:51;;;;;;;10.70;4.43;;;;;;;19.25;57.10;99360.00;5022251;28;20036;-82
2022/05/15 09:11:39;;;;;;;10.98;4.60;;;;;;;19.19;56.20;99352.25;5029049;28;20029;-83
2022/05/15 09:14:13;;;;;;;13.55;5.05;;;;;;;19.22;56.25;99354.38;5021165;28;20481;-83
2022/05/15 09:16:50;;;;;;;10.63;4.20;;;;;;;19.26;56.06;99348.06;5022042;28;20029;-83
2022/05/15 09:19:15;;;;;;;14.57;4.80;;;;;;;19.63;55.31;99344.56;5018179;28;20056;-83
2022/05/15 09:21:40;;;;;;;13.63;5.10;;;;;;;19.70;55.34;99355.81;5021351;28;20033;-83
2022/05/15 09:24:22;;;;;;;15.90;5.55;;;;;;;19.68;55.48;99346.41;5022567;28;20037;-83
2022/05/15 09:26:47;;;;;;;8.82;4.20;;;;;;;19.71;55.17;99348.50;5024367;28;20171;-83
2022/05/15 09:29:28;;;;;;;14.95;5.60;;;;;;;19.76;54.94;99343.00;5021441;28;20120;-84
2022/05/15 09:31:53;;;;;;;16.35;5.30;;;;;;;20.11;54.18;99340.50;5031998;28;20022;-85
2022/05/15 09:34:21;;;;;;;19.85;5.03;;;;;;;20.41;53.45;99346.47;5019581;28;20032;-84
2022/05/15 09:36:49;;;;;;;15.48;5.15;;;;;;;20.46;52.11;99344.50;5036360;28;20104;-84
2022/05/15 09:39:38;;;;;;;13.05;4.82;;;;;;;20.30;53.28;99343.16;5010745;28;20184;-84
2022/05/15 09:45:18;;;;;;;13.93;4.28;;;;;;;20.07;54.34;99334.03;5029439;28;20094;-84
2022/05/15 09:48:05;;;;;;;16.45;5.53;;;;;;;20.34;53.16;99336.03;5026227;28;20123;-85
2022/05/15 09:50:52;;;;;;;;;;;;;;;20.61;53.09;99327.91;5024478;28;20401;-85
2022/05/15 09:53:45;;;;;;;16.70;4.88;;;;;;;20.82;52.73;99329.09;5039377;28;19917;-85
2022/05/15 09:56:10;;;;;;;12.77;4.55;;;;;;;20.93;52.11;99335.91;5026176;28;20115;-85
2022/05/15 09:58:58;;;;;;;16.08;5.18;;;;;;;21.01;52.17;99326.25;5024813;28;20037;-85
2022/05/15 10:01:33;;;;;;;15.73;5.70;;;;;;;21.22;51.14;99337.50;5011497;28;20029;-84
2022/05/15 10:04:00;;;;;;;15.18;4.75;;;;;;;21.36;50.73;99327.41;5026472;28;20040;-85
2022/05/15 10:06:29;;;;;;;16.08;5.40;;;;;;;21.57;50.24;99314.94;5025458;28;20017;-85
2022/05/15 10:09:15;;;;;;;12.13;4.55;;;;;;;21.59;50.42;99335.25;5019938;28;20032;-85
2022/05/15 10:11:57;;;;;;;10.95;3.80;;;;;;;21.67;50.23;99330.19;5023888;28;20025;-85
2022/05/15 10:14:42;;;;;;;12.13;4.18;;;;;;;21.65;49.93;99319.63;5012862;28;20397;-85
2022/05/15 10:17:10;;;;;;;13.27;5.28;;;;;;;21.74;50.28;99319.69;5020562;28;20033;-84
2022/05/15 10:19:56;;;;;;;13.95;4.68;;;;;;;21.82;50.37;99318.94;5037495;28;20442;-84
2022/05/15 10:22:25;;;;;;;13.80;5.20;;;;;;;21.87;49.73;99332.41;5005467;28;20123;-84
2022/05/15 10:24:51;;;;;;;11.63;5.13;;;;;;;21.93;49.47;99315.66;5034982;28;20033;-84
2022/05/15 10:27:31;;;;;;;7.63;4.03;;;;;;;22.04;49.41;99311.56;5006334;28;20036;-84
2022/05/15 10:30:09;;;;;;;13.07;4.05;;;;;;;22.14;48.91;99316.78;4998484;28;20124;-84
2022/05/15 10:32:44;;;;;;;10.63;4.10;;;;;;;22.18;49.27;99314.22;5025002;28;20040;-84
2022/05/15 10:35:15;;;;;;;9.10;3.65;;;;;;;22.20;48.75;99312.78;5023376;28;20033;-84
2022/05/15 10:38:10;;;;;;;19.95;4.82;;;;;;;22.32;48.45;99309.50;5003912;28;20452;-84
2022/05/15 10:41:09;;;;;;;15.73;4.35;;;;;;;22.66;46.88;99296.03;5024581;28;20033;-84
2022/05/15 10:43:44;;;;;;;11.68;4.05;;;;;;;22.84;46.15;99296.88;5021815;28;20036;-83
2022/05/15 10:46:22;;;;;;;12.30;4.03;;;;;;;22.78;46.49;99295.41;5026297;28;20026;-83
2022/05/15 10:49:25;;;;;;;11.20;3.92;;;;;;;22.84;46.72;99307.75;5022135;28;20459;-83
2022/05/15 10:52:22;;;;;;;16.20;5.55;;;;;;;22.94;46.51;99299.28;5023086;28;20477;-83
2022/05/15 10:58:17;;;;;;;12.77;4.15;;;;;;;23.03;46.97;99291.91;5027349;28;20099;-84
2022/05/15 11:00:55;;;;;;;11.95;4.18;;;;;;;23.06;46.93;99292.06;5025908;28;20025;-83
2022/05/15 11:03:37;;;;;;;10.15;4.50;;;;;;;23.08;47.06;99286.31;5039819;28;20546;-83
2022/05/15 11:06:31;;;;;;;9.50;3.65;;;;;;;23.22;46.37;99275.28;5027140;28;20029;-83
2022/05/15 11:09:25;;;;;;;8.52;4.28;;;;;;;23.30;46.16;99278.00;5037878;28;20040;-83
2022/05/15 11:12:06;;;;;;;8.07;4.22;;;;;;;23.43;45.69;99274.34;5024998;28;20477;-83
2022/05/15 11:14:45;;;;;;;9.48;4.07;;;;;;;23.57;45.54;99269.50;5026077;28;20036;-83
2022/05/15 11:17:25;;;;;;;11.60;3.90;;;;;;;23.73;45.60;99273.31;5029372;28;20525;-84
2022/05/15 11:19:53;;;;;;;13.20;5.00;;;;;;;23.81;45.45;99269.75;5024977;28;20183;-84
2022/05/15 11:22:19;;;;;;;9.40;3.75;;;;;;;23.91;45.18;99254.19;5013198;28;20121;-84
2022/05/15 11:25:27;;;;;;;11.88;3.92;;;;;;;24.13;44.98;99262.16;5028084;28;20116;-84
2022/05/15 11:28:21;;;;;;;10.18;4.05;;;;;;;24.09;45.02;99267.44;5029552;28;20029;-83
2022/05/15 11:30:54;;;;;;;12.18;4.57;;;;;;;24.10;44.85;99260.06;5014026;28;20108;-84
2022/05/15 11:33:50;;;;;;;7.13;3.20;;;;;;;24.18;44.75;99259.25;5023731;28;20348;-84
2022/05/15 11:36:21;;;;;;;10.07;3.87;;;;;;;24.29;44.19;99258.53;5029734;28;20021;-83
2022/05/15 11:39:01;;;;;;;11.77;3.42;;;;;;;24.43;44.18;99253.66;5025216;28;20138;-84
2022/05/15 11:41:35;;;;;;;8.43;3.85;;;;;;;24.61;43.84;99248.09;5044501;28;20037;-84
2022/05/15 11:44:03;;;;;;;8.73;3.63;;;;;;;24.59;43.72;99248.44;5032856;28;20445;-84
2022/05/15 11:46:47;;;;;;;9.50;3.95;;;;;;;24.69;42.86;99239.84;5029663;28;20026;-83
2022/05/15 11:49:39;;;;;;;16.25;4.18;;;;;;;24.80;42.87;99232.09;5023879;28;20033;-83
2022/05/15 11:52:04;;;;;;;6.22;3.17;;;;;;;24.85;43.17;99234.66;5027660;28;20048;-83
2022/05/15 11:54:35;;;;;;;12.15;4.00;;;;;;;24.90;43.21;99229.78;5028405;28;20021;-83
2022/05/15 11:57:03;;;;;;;9.25;3.95;;;;;;;24.98;43.08;99223.47;5028553;28;20083;-84
2022/05/15 11:59:34;;;;;;;9.43;3.65;;;;;;;25.10;42.93;99222.69;5027465;28;20120;-83